createdAt,value
2023-09-09T00:01:00.402Z,74.02
2023-09-09T00:03:27.220Z,74.03
2023-09-09T00:08:20.905Z,74.22
2023-09-09T00:10:49.085Z,74.39
2023-09-09T00:13:17.088Z,74.77
2023-09-09T00:15:44.708Z,74.74
2023-09-09T00:18:12.534Z,75.38
2023-09-09T00:20:42.300Z,75.61
2023-09-09T00:23:09.952Z,76.01
2023-09-09T00:25:38.352Z,76.16
2023-09-09T00:28:08.867Z,76.65
2023-09-09T00:30:36.590Z,76.89
2023-09-09T00:33:04.878Z,77.12
2023-09-09T00:35:35.393Z,77.29
2023-09-09T00:38:03.429Z,77.78
2023-09-09T00:40:31.053Z,78.05
2023-09-09T00:42:58.589Z,78.51
2023-09-09T00:45:27.425Z,78.94
2023-09-09T00:47:57.045Z,79.33
2023-09-09T00:50:24.848Z,79.55
2023-09-09T00:52:52.702Z,79.69
2023-09-09T00:55:20.438Z,79.87
2023-09-09T00:57:47.965Z,80.32
2023-09-09T01:00:15.817Z,80.47
2023-09-09T01:02:43.631Z,81.04
2023-09-09T01:05:12.079Z,81.28
2023-09-09T01:07:50.050Z,81.53
2023-09-09T01:10:18.654Z,81.90
2023-09-09T01:12:46.349Z,82.65
2023-09-09T01:15:15.292Z,83.05
2023-09-09T01:17:43.093Z,83.37
2023-09-09T01:20:16.017Z,83.66
2023-09-09T01:22:45.026Z,83.83
2023-09-09T01:25:12.833Z,83.92
2023-09-09T01:27:40.586Z,84.07
2023-09-09T01:30:09.497Z,84.51
2023-09-09T01:32:37.408Z,84.84
2023-09-09T01:35:06.172Z,85.63
2023-09-09T01:37:34.433Z,85.96
2023-09-09T01:40:07.244Z,87.00
2023-09-09T01:42:34.883Z,87.47
2023-09-09T01:45:02.440Z,87.88
2023-09-09T01:47:30.203Z,88.16
2023-09-09T01:49:57.922Z,88.35
2023-09-09T01:52:26.104Z,88.66
2023-09-09T01:54:54.360Z,89.03
2023-09-09T01:57:23.526Z,89.44
2023-09-09T01:59:51.196Z,89.67
2023-09-09T02:02:19.045Z,89.98
2023-09-09T02:04:46.548Z,90.08
2023-09-09T02:07:14.277Z,89.94
2023-09-09T02:09:42.889Z,89.96
2023-09-09T02:12:10.436Z,89.95
2023-09-09T02:14:38.286Z,90.04
2023-09-09T02:17:05.854Z,90.22
2023-09-09T02:19:33.782Z,90.33
2023-09-09T02:22:01.338Z,90.39
2023-09-09T02:24:29.117Z,90.30
2023-09-09T02:26:56.593Z,90.24
2023-09-09T02:29:24.318Z,90.17
2023-09-09T02:31:51.808Z,90.09
2023-09-09T02:34:19.365Z,90.33
2023-09-09T02:37:18.212Z,90.23
2023-09-09T02:39:50.111Z,90.57
2023-09-09T02:42:19.379Z,90.66
2023-09-09T02:44:47.149Z,90.61
2023-09-09T02:47:14.703Z,90.64
2023-09-09T02:49:43.120Z,90.52
2023-09-09T02:52:10.997Z,90.66
2023-09-09T02:54:39.517Z,90.71
2023-09-09T02:57:07.159Z,90.86
2023-09-09T02:59:34.953Z,90.90
2023-09-09T03:02:03.177Z,90.82
2023-09-09T03:04:30.829Z,91.03
2023-09-09T03:06:58.483Z,91.23
2023-09-09T03:09:27.109Z,91.56
2023-09-09T03:11:55.697Z,91.70
2023-09-09T03:14:23.649Z,92.10
2023-09-09T03:16:52.069Z,92.18
2023-09-09T03:19:19.664Z,92.65
2023-09-09T03:21:48.205Z,93.20
2023-09-09T03:24:15.736Z,93.52
2023-09-09T03:26:43.437Z,93.93
2023-09-09T03:29:10.986Z,94.19
2023-09-09T03:31:38.461Z,94.36
2023-09-09T03:34:08.384Z,94.74
2023-09-09T03:36:37.191Z,95.13
2023-09-09T03:39:04.904Z,95.45
2023-09-09T03:41:32.625Z,95.98
2023-09-09T03:44:00.328Z,96.23
2023-09-09T03:46:28.112Z,96.53
2023-09-09T03:48:57.345Z,96.57
2023-09-09T03:51:25.559Z,96.90
2023-09-09T03:53:53.376Z,97.13
2023-09-09T03:56:21.633Z,97.67
2023-09-09T03:58:49.244Z,97.87
2023-09-09T04:01:16.863Z,98.14
2023-09-09T04:03:44.828Z,98.46
2023-09-09T04:06:14.731Z,98.82
2023-09-09T04:08:43.524Z,98.93
2023-09-09T04:11:12.414Z,99.23
2023-09-09T04:13:41.788Z,99.07
2023-09-09T04:16:10.176Z,99.06
2023-09-09T04:21:08.207Z,99.08
2023-09-09T04:23:36.299Z,99.21
2023-09-09T04:26:04.054Z,99.27
2023-09-09T04:28:32.155Z,99.55
2023-09-09T04:30:59.697Z,99.08
2023-09-09T04:33:27.315Z,98.45
2023-09-09T04:35:55.024Z,98.66
2023-09-09T04:38:24.698Z,98.49
2023-09-09T04:40:53.035Z,98.63
2023-09-09T04:43:22.182Z,98.61
2023-09-09T04:45:50.035Z,98.36
2023-09-09T04:48:17.671Z,98.07
2023-09-09T04:50:46.139Z,98.06
2023-09-09T04:53:13.965Z,97.84
2023-09-09T04:55:41.681Z,97.56
2023-09-09T04:58:11.800Z,97.26
2023-09-09T05:00:40.393Z,97.12
2023-09-09T05:03:08.621Z,97.07
2023-09-09T05:05:36.216Z,96.95
2023-09-09T05:08:04.147Z,96.59
2023-09-09T05:10:35.266Z,96.43
2023-09-09T05:13:05.065Z,96.53
2023-09-09T05:15:32.850Z,96.36
2023-09-09T05:18:00.567Z,96.37
2023-09-09T05:20:28.407Z,96.04
2023-09-09T05:22:56.620Z,95.96
2023-09-09T05:25:24.718Z,95.91
2023-09-09T05:27:52.763Z,95.43
2023-09-09T05:30:20.706Z,95.34
2023-09-09T05:32:48.705Z,95.43
2023-09-09T05:35:16.476Z,95.26
2023-09-09T05:41:15.092Z,95.36
2023-09-09T05:43:42.760Z,95.32
2023-09-09T05:46:10.429Z,95.14
2023-09-09T05:48:38.268Z,95.02
2023-09-09T05:51:06.066Z,94.88
2023-09-09T05:53:34.146Z,94.74
2023-09-09T05:56:01.983Z,94.51
2023-09-09T06:01:46.255Z,93.51
2023-09-09T06:04:16.901Z,92.69
2023-09-09T06:06:48.024Z,91.71
2023-09-09T06:09:16.120Z,91.30
2023-09-09T06:11:43.831Z,90.49
2023-09-09T06:14:11.565Z,89.76
2023-09-09T06:16:39.442Z,89.69
2023-09-09T06:19:07.019Z,89.53
2023-09-09T06:21:34.578Z,89.27
2023-09-09T06:24:02.255Z,89.04
2023-09-09T06:26:33.362Z,88.21
2023-09-09T06:29:02.356Z,87.61
2023-09-09T06:31:30.607Z,87.12
2023-09-09T06:33:58.701Z,86.47
2023-09-09T06:36:26.625Z,85.56
2023-09-09T06:38:54.518Z,84.89
2023-09-09T06:41:23.633Z,84.89
2023-09-09T06:43:51.576Z,84.74
2023-09-09T06:46:19.617Z,84.80
2023-09-09T06:48:47.132Z,84.73
2023-09-09T06:51:14.725Z,84.60
2023-09-09T06:53:42.371Z,84.73
2023-09-09T06:56:09.867Z,84.88
2023-09-09T06:58:37.360Z,84.92
2023-09-09T07:01:05.305Z,85.05
2023-09-09T07:03:32.907Z,84.79
2023-09-09T07:06:01.529Z,83.81
2023-09-09T07:08:29.265Z,83.38
2023-09-09T07:10:57.881Z,82.28
2023-09-09T07:13:25.597Z,80.57
2023-09-09T07:15:56.174Z,79.66
2023-09-09T07:18:23.893Z,78.92
2023-09-09T07:20:51.521Z,77.89
2023-09-09T07:23:19.491Z,77.29
2023-09-09T07:25:50.262Z,76.82
2023-09-09T07:28:17.877Z,76.50
2023-09-09T07:30:45.455Z,76.22
2023-09-09T07:33:13.072Z,75.64
2023-09-09T07:35:40.623Z,74.91
2023-09-09T07:38:09.123Z,74.05
2023-09-09T07:40:36.753Z,73.81
2023-09-09T07:43:04.635Z,72.91
2023-09-09T07:45:32.342Z,72.67
2023-09-09T07:48:00.112Z,71.57
2023-09-09T07:50:27.740Z,70.36
2023-09-09T07:52:55.319Z,69.55
2023-09-09T07:55:22.831Z,68.93
2023-09-09T07:57:50.404Z,68.71
2023-09-09T08:00:18.692Z,68.44
2023-09-09T08:02:46.295Z,68.27
2023-09-09T08:05:14.634Z,68.01
2023-09-09T08:07:42.193Z,67.32
2023-09-09T08:10:11.216Z,65.11
2023-09-09T08:12:39.120Z,63.61
2023-09-09T08:15:08.036Z,62.68
2023-09-09T08:17:35.808Z,61.19
2023-09-09T08:20:08.405Z,59.84
2023-09-09T08:22:36.428Z,58.99
2023-09-09T08:25:04.907Z,58.24
2023-09-09T08:27:32.568Z,56.74
2023-09-09T08:30:00.291Z,55.01
2023-09-09T08:32:27.894Z,53.38
2023-09-09T08:34:55.603Z,52.79
2023-09-09T08:37:23.306Z,52.96
2023-09-09T08:39:55.610Z,53.62
2023-09-09T08:42:41.031Z,54.48
2023-09-09T08:45:28.508Z,53.62
2023-09-09T08:47:57.048Z,52.75
2023-09-09T08:50:25.819Z,53.23
2023-09-09T08:52:56.395Z,53.78
2023-09-09T08:55:23.907Z,54.43
2023-09-09T08:57:51.572Z,55.04
2023-09-09T09:00:19.391Z,55.22
2023-09-09T09:02:48.350Z,54.40
2023-09-09T09:05:16.597Z,53.86
2023-09-09T09:07:44.171Z,52.72
2023-09-09T09:10:11.875Z,52.41
2023-09-09T09:12:39.702Z,52.53
2023-09-09T09:15:07.559Z,52.31
2023-09-09T09:17:38.741Z,52.23
2023-09-09T09:20:08.617Z,52.50
2023-09-09T09:22:38.894Z,52.74
2023-09-09T09:25:10.303Z,53.03
2023-09-09T09:27:37.800Z,52.77
2023-09-09T09:30:05.608Z,52.31
2023-09-09T09:32:42.778Z,52.62
2023-09-09T09:35:43.151Z,52.89
2023-09-09T09:38:18.935Z,52.96
2023-09-09T09:40:46.662Z,52.83
2023-09-09T09:43:21.374Z,52.71
2023-09-09T09:45:49.014Z,52.76
2023-09-09T09:48:28.900Z,52.40
2023-09-09T09:50:56.602Z,52.28
2023-09-09T09:53:24.313Z,51.98
2023-09-09T09:55:52.030Z,51.38
2023-09-09T09:58:19.979Z,50.82
2023-09-09T10:00:47.493Z,51.46
2023-09-09T10:03:15.439Z,51.65
2023-09-09T10:05:43.376Z,51.31
2023-09-09T10:08:21.211Z,51.01
2023-09-09T10:10:52.644Z,50.88
2023-09-09T10:13:20.917Z,50.49
2023-09-09T10:15:48.814Z,49.67
2023-09-09T10:18:16.532Z,49.42
2023-09-09T10:20:44.078Z,49.73
2023-09-09T10:23:11.522Z,49.62
2023-09-09T10:25:40.025Z,49.79
2023-09-09T10:28:07.609Z,50.57
2023-09-09T10:30:35.867Z,51.01
2023-09-09T10:33:03.716Z,50.74
2023-09-09T10:35:31.523Z,50.57
2023-09-09T10:37:59.095Z,49.66
2023-09-09T10:40:26.810Z,49.26
2023-09-09T10:42:54.413Z,48.87
2023-09-09T10:45:31.768Z,48.44
2023-09-09T10:48:04.804Z,48.26
2023-09-09T10:50:45.201Z,48.30
2023-09-09T10:53:31.776Z,48.39
2023-09-09T10:56:23.302Z,48.17
2023-09-09T10:58:51.359Z,47.13
2023-09-09T11:01:25.977Z,47.25
2023-09-09T11:03:53.841Z,47.42
2023-09-09T11:06:32.935Z,47.01
2023-09-09T11:09:01.457Z,45.76
2023-09-09T11:11:39.090Z,45.40
2023-09-09T11:14:08.213Z,45.69
2023-09-09T11:16:43.000Z,46.04
2023-09-09T11:19:12.846Z,46.03
2023-09-09T11:21:52.201Z,45.50
2023-09-09T11:24:20.486Z,44.81
2023-09-09T11:26:49.090Z,45.03
2023-09-09T11:29:30.314Z,45.18
2023-09-09T11:32:04.477Z,45.05
2023-09-09T11:34:33.989Z,44.72
2023-09-09T11:37:03.010Z,44.64
2023-09-09T11:39:30.860Z,43.44
2023-09-09T11:41:58.350Z,42.68
2023-09-09T11:44:26.148Z,42.52
2023-09-09T11:46:53.689Z,42.65
2023-09-09T11:49:21.572Z,42.59
2023-09-09T11:51:49.037Z,42.02
2023-09-09T11:54:21.282Z,41.92
2023-09-09T11:56:49.208Z,41.91
2023-09-09T11:59:16.951Z,42.03
2023-09-09T12:01:45.837Z,42.15
2023-09-09T12:04:16.926Z,42.04
2023-09-09T12:06:46.910Z,41.57
2023-09-09T12:09:15.210Z,41.82
2023-09-09T12:11:42.837Z,42.26
2023-09-09T12:14:13.994Z,41.96
2023-09-09T12:16:41.608Z,41.12
2023-09-09T12:19:16.763Z,40.75
2023-09-09T12:21:46.107Z,41.09
2023-09-09T12:24:13.806Z,41.45
2023-09-09T12:26:41.438Z,41.73
2023-09-09T12:29:10.810Z,42.35
2023-09-09T12:31:58.963Z,42.81
2023-09-09T12:34:27.565Z,43.04
2023-09-09T12:36:59.371Z,43.16
2023-09-09T12:39:30.954Z,42.91
2023-09-09T12:42:02.370Z,42.91
2023-09-09T12:44:34.123Z,41.82
2023-09-09T12:47:05.562Z,41.23
2023-09-09T12:49:34.555Z,40.90
2023-09-09T12:52:02.146Z,40.64
2023-09-09T12:54:29.888Z,40.82
2023-09-09T12:56:57.503Z,40.55
2023-09-09T12:59:25.043Z,40.50
2023-09-09T13:01:54.888Z,40.66
2023-09-09T13:04:25.815Z,40.41
2023-09-09T13:06:53.496Z,40.34
2023-09-09T13:09:20.988Z,39.92
2023-09-09T13:11:50.088Z,39.20
2023-09-09T13:14:25.277Z,38.93
2023-09-09T13:16:53.615Z,38.87
2023-09-09T13:19:21.658Z,39.26
2023-09-09T13:21:49.766Z,39.59
2023-09-09T13:24:17.266Z,39.78
2023-09-09T13:26:44.861Z,39.87
2023-09-09T13:29:12.360Z,40.01
2023-09-09T13:31:39.925Z,39.89
2023-09-09T13:34:07.784Z,39.55
2023-09-09T13:36:35.283Z,39.60
2023-09-09T13:39:02.789Z,39.32
2023-09-09T13:41:31.345Z,39.41
2023-09-09T13:43:59.064Z,39.34
2023-09-09T13:46:27.157Z,39.06
2023-09-09T13:48:54.799Z,39.15
2023-09-09T13:51:22.972Z,39.47
2023-09-09T13:53:50.520Z,39.21
2023-09-09T13:56:18.138Z,39.19
2023-09-09T13:58:45.686Z,39.07
2023-09-09T14:01:13.151Z,39.00
2023-09-09T14:03:40.846Z,39.06
2023-09-09T14:06:09.876Z,38.74
2023-09-09T14:08:37.730Z,38.39
2023-09-09T14:11:05.449Z,38.50
2023-09-09T14:13:33.091Z,38.25
2023-09-09T14:16:01.468Z,38.23
2023-09-09T14:18:29.332Z,38.08
2023-09-09T14:20:57.220Z,37.96
2023-09-09T14:23:24.838Z,37.97
2023-09-09T14:25:52.321Z,38.16
2023-09-09T14:28:19.841Z,38.41
2023-09-09T14:30:47.486Z,38.11
2023-09-09T14:33:16.377Z,38.43
2023-09-09T14:35:44.122Z,39.02
2023-09-09T14:38:11.728Z,39.09
2023-09-09T14:40:39.279Z,39.38
2023-09-09T14:43:06.773Z,39.33
2023-09-09T14:45:34.408Z,39.12
2023-09-09T14:48:02.095Z,39.04
2023-09-09T14:50:29.668Z,39.10
2023-09-09T14:52:57.276Z,39.00
2023-09-09T14:55:24.907Z,38.96
2023-09-09T14:57:52.333Z,38.90
2023-09-09T15:00:20.091Z,38.86
2023-09-09T15:02:47.636Z,38.83
2023-09-09T15:05:15.261Z,38.53
2023-09-09T15:07:42.798Z,38.20
2023-09-09T15:10:10.430Z,38.19
2023-09-09T15:12:37.935Z,37.89
2023-09-09T15:15:06.009Z,37.63
2023-09-09T15:17:33.691Z,37.75
2023-09-09T15:20:01.368Z,37.69
2023-09-09T15:22:28.899Z,37.77
2023-09-09T15:24:56.480Z,37.58
2023-09-09T15:27:24.002Z,37.81
2023-09-09T15:29:52.235Z,38.11
2023-09-09T15:32:19.929Z,38.30
2023-09-09T15:34:47.881Z,38.12
2023-09-09T15:37:15.614Z,38.27
2023-09-09T15:42:35.999Z,38.62
2023-09-09T15:45:03.805Z,38.69
2023-09-09T15:47:35.173Z,38.96
2023-09-09T15:50:02.777Z,38.92
2023-09-09T15:52:30.338Z,39.03
2023-09-09T15:54:57.883Z,39.00
2023-09-09T15:57:25.525Z,39.18
2023-09-09T15:59:54.025Z,39.24
2023-09-09T16:02:21.705Z,39.13
2023-09-09T16:04:49.748Z,39.19
2023-09-09T16:07:18.889Z,39.16
2023-09-09T16:09:49.702Z,39.10
2023-09-09T16:12:20.079Z,39.07
2023-09-09T16:14:48.063Z,39.20
2023-09-09T16:17:16.914Z,39.31
2023-09-09T16:19:47.109Z,39.35
2023-09-09T16:22:15.143Z,39.50
2023-09-09T16:24:42.685Z,39.49
2023-09-09T16:27:10.183Z,39.70
2023-09-09T16:29:38.121Z,39.90
2023-09-09T16:32:06.219Z,40.07
2023-09-09T16:34:34.264Z,40.11
2023-09-09T16:37:03.676Z,40.29
2023-09-09T16:39:31.259Z,40.33
2023-09-09T16:42:00.742Z,40.43
2023-09-09T16:44:28.248Z,40.55
2023-09-09T16:46:56.133Z,40.66
2023-09-09T16:49:23.991Z,40.86
2023-09-09T16:51:52.395Z,41.02
2023-09-09T16:54:20.080Z,41.31
2023-09-09T16:56:48.419Z,41.27
2023-09-09T16:59:16.264Z,41.63
2023-09-09T17:01:48.622Z,41.86
2023-09-09T17:04:16.956Z,42.16
2023-09-09T17:06:44.753Z,42.39
2023-09-09T17:09:12.747Z,42.53
2023-09-09T17:11:40.338Z,42.95
2023-09-09T17:14:08.206Z,43.47
2023-09-09T17:16:37.664Z,43.61
2023-09-09T17:19:05.247Z,43.98
2023-09-09T17:21:32.771Z,44.22
2023-09-09T17:24:03.364Z,44.67
2023-09-09T17:26:31.120Z,44.98
2023-09-09T17:28:58.825Z,45.27
2023-09-09T17:31:26.516Z,45.56
2023-09-09T17:33:54.396Z,45.99
2023-09-09T17:36:23.733Z,46.06
2023-09-09T17:39:09.960Z,46.28
2023-09-09T17:41:37.659Z,46.54
2023-09-09T17:44:06.746Z,46.92
2023-09-09T17:46:35.508Z,47.07
2023-09-09T17:49:04.290Z,47.28
2023-09-09T17:51:33.708Z,47.53
2023-09-09T17:54:02.601Z,48.10
2023-09-09T17:56:35.078Z,48.46
2023-09-09T17:59:03.194Z,48.67
2023-09-09T18:01:31.163Z,48.91
2023-09-09T18:03:58.990Z,49.23
2023-09-09T18:06:29.008Z,49.51
2023-09-09T18:08:57.591Z,49.78
2023-09-09T18:11:25.321Z,49.99
2023-09-09T18:13:53.162Z,50.30
2023-09-09T18:16:22.457Z,50.64
2023-09-09T18:18:56.201Z,50.93
2023-09-09T18:21:28.672Z,51.09
2023-09-09T18:23:56.497Z,51.28
2023-09-09T18:26:24.876Z,51.54
2023-09-09T18:28:53.421Z,51.89
2023-09-09T18:31:21.829Z,52.31
2023-09-09T18:33:49.707Z,52.46
2023-09-09T18:36:18.135Z,52.61
2023-09-09T18:38:46.285Z,52.77
2023-09-09T18:41:14.138Z,52.95
2023-09-09T18:43:41.783Z,53.30
2023-09-09T18:46:09.617Z,53.56
2023-09-09T18:48:37.674Z,53.99
2023-09-09T18:51:05.928Z,54.13
2023-09-09T18:53:34.906Z,54.36
2023-09-09T18:56:02.733Z,54.71
2023-09-09T18:58:30.568Z,55.05
2023-09-09T19:00:58.346Z,55.33
2023-09-09T19:03:27.291Z,55.68
2023-09-09T19:05:56.360Z,55.87
2023-09-09T19:08:27.035Z,56.16
2023-09-09T19:10:54.552Z,56.34
2023-09-09T19:13:25.213Z,56.67
2023-09-09T19:15:53.349Z,56.88
2023-09-09T19:18:21.395Z,57.00
2023-09-09T19:20:52.439Z,57.39
2023-09-09T19:23:20.038Z,57.48
2023-09-09T19:25:55.361Z,57.68
2023-09-09T19:28:23.068Z,57.84
2023-09-09T19:30:50.990Z,58.02
2023-09-09T19:33:21.558Z,58.36
2023-09-09T19:35:49.937Z,58.67
